createdAt,value
2016-12-05T00:00:15.999Z,0
2016-12-05T00:01:16.068Z,0
2016-12-05T00:02:16.136Z,0
2016-12-05T00:03:16.188Z,0
2016-12-05T00:04:16.211Z,0
2016-12-05T00:05:16.275Z,0
2016-12-05T00:06:16.321Z,0
2016-12-05T00:07:16.379Z,0
2016-12-05T00:08:16.449Z,0
2016-12-05T00:09:16.507Z,0
2016-12-05T00:10:16.551Z,0
2016-12-05T00:11:16.624Z,0
2016-12-05T00:12:16.684Z,0
2016-12-05T00:13:16.748Z,0
2016-12-05T00:14:16.795Z,0
2016-12-05T00:15:16.862Z,0
2016-12-05T00:16:16.896Z,0
2016-12-05T00:17:16.959Z,0
2016-12-05T00:18:17.004Z,0
2016-12-05T00:19:17.065Z,0
2016-12-05T00:20:17.125Z,0
2016-12-05T00:21:17.198Z,0
2016-12-05T00:22:17.251Z,0
2016-12-05T00:23:17.310Z,0
2016-12-05T00:24:17.340Z,0
2016-12-05T00:25:17.416Z,0
2016-12-05T00:26:17.463Z,0
2016-12-05T00:27:17.524Z,0
2016-12-05T00:28:17.574Z,0
2016-12-05T00:29:17.629Z,0
2016-12-05T00:30:17.711Z,0
2016-12-05T00:31:17.744Z,0
2016-12-05T00:32:17.788Z,0
2016-12-05T00:33:17.859Z,0
2016-12-05T00:34:17.925Z,0
2016-12-05T00:35:17.978Z,0
2016-12-05T00:36:18.016Z,0
2016-12-05T00:37:18.081Z,0
2016-12-05T00:38:18.126Z,0
2016-12-05T00:39:18.192Z,0
2016-12-05T00:40:18.228Z,0
2016-12-05T00:41:18.286Z,0
2016-12-05T00:42:18.360Z,0
2016-12-05T00:43:18.411Z,0
2016-12-05T00:44:18.474Z,0
2016-12-05T00:45:18.542Z,0
2016-12-05T00:46:18.586Z,0
2016-12-05T00:47:18.647Z,0
2016-12-05T00:48:18.695Z,0
2016-12-05T00:49:18.747Z,0
2016-12-05T00:50:18.813Z,0
2016-12-05T00:51:18.854Z,0
2016-12-05T00:52:18.944Z,0
2016-12-05T00:53:18.971Z,0
2016-12-05T00:54:19.014Z,0
2016-12-05T00:55:19.073Z,0
2016-12-05T00:56:19.141Z,0
2016-12-05T00:57:19.203Z,0
2016-12-05T00:58:19.263Z,0
2016-12-05T00:59:19.307Z,0
2016-12-05T01:00:19.384Z,0
2016-12-05T01:01:19.434Z,0
2016-12-05T01:02:19.471Z,0
2016-12-05T01:03:19.554Z,0
2016-12-05T01:04:19.606Z,0
2016-12-05T01:05:19.659Z,0
2016-12-05T01:06:19.726Z,0
2016-12-05T01:07:19.780Z,0
2016-12-05T01:08:19.809Z,0
2016-12-05T01:09:19.874Z,0
2016-12-05T01:10:19.927Z,0
2016-12-05T01:11:19.984Z,0
2016-12-05T01:12:20.048Z,0
2016-12-05T01:13:20.114Z,0
2016-12-05T01:14:20.287Z,0
2016-12-05T01:15:20.226Z,0
2016-12-05T01:16:20.282Z,0
2016-12-05T01:17:20.320Z,0
2016-12-05T01:18:20.369Z,0
2016-12-05T01:19:20.421Z,0
2016-12-05T01:20:20.503Z,0
2016-12-05T01:21:20.531Z,0
2016-12-05T01:22:20.587Z,0
2016-12-05T01:23:20.680Z,0
2016-12-05T01:24:20.700Z,0
2016-12-05T01:25:20.784Z,0
2016-12-05T01:26:20.819Z,0
2016-12-05T01:27:20.884Z,0
2016-12-05T01:28:20.933Z,0
2016-12-05T01:29:21.004Z,0
2016-12-05T01:30:21.094Z,0
2016-12-05T01:31:21.116Z,0
2016-12-05T01:32:21.162Z,0
2016-12-05T01:33:21.219Z,0
2016-12-05T01:34:21.265Z,0
2016-12-05T01:35:21.317Z,0
2016-12-05T01:36:21.393Z,0
2016-12-05T01:37:21.451Z,0
2016-12-05T01:38:21.515Z,0
2016-12-05T01:39:21.542Z,0
2016-12-05T01:40:21.604Z,0
2016-12-05T01:41:21.675Z,0
2016-12-05T01:42:21.712Z,0
2016-12-05T01:43:21.782Z,0
2016-12-05T01:44:21.871Z,0
2016-12-05T01:45:21.900Z,0
2016-12-05T01:46:21.964Z,0
2016-12-05T01:47:22.010Z,0
2016-12-05T01:48:22.062Z,0
2016-12-05T01:49:22.120Z,0
2016-12-05T01:50:22.174Z,0
2016-12-05T01:51:22.250Z,0
2016-12-05T01:52:22.273Z,0
2016-12-05T01:53:22.343Z,0
2016-12-05T01:54:22.421Z,0
2016-12-05T01:55:22.491Z,0
2016-12-05T01:56:22.519Z,0
2016-12-05T01:57:22.554Z,0
2016-12-05T01:58:22.631Z,0
2016-12-05T01:59:22.679Z,0
2016-12-05T02:00:22.755Z,0
2016-12-05T02:01:22.816Z,0
2016-12-05T02:02:22.855Z,0
2016-12-05T02:03:22.911Z,0
2016-12-05T02:04:22.956Z,0
2016-12-05T02:05:23.018Z,0
2016-12-05T02:06:23.066Z,0
2016-12-05T02:07:23.139Z,0
2016-12-05T02:08:23.195Z,0
2016-12-05T02:09:23.241Z,0
2016-12-05T02:10:23.323Z,0
2016-12-05T02:11:23.345Z,0
2016-12-05T02:12:23.405Z,0
2016-12-05T02:13:23.462Z,0
2016-12-05T02:14:23.527Z,0
2016-12-05T02:15:23.579Z,0
2016-12-05T02:16:23.644Z,0
2016-12-05T02:17:23.691Z,0
2016-12-05T02:18:23.748Z,0
2016-12-05T02:19:23.813Z,0
2016-12-05T02:20:23.865Z,0
2016-12-05T02:21:23.928Z,0
2016-12-05T02:22:23.981Z,0
2016-12-05T02:23:24.049Z,0
2016-12-05T02:24:24.106Z,0
2016-12-05T02:25:24.143Z,0
2016-12-05T02:26:24.212Z,0
2016-12-05T02:27:24.253Z,0
2016-12-05T02:28:24.323Z,0
2016-12-05T02:29:24.386Z,0
2016-12-05T02:30:24.430Z,0
2016-12-05T02:31:24.478Z,0
2016-12-05T02:32:24.533Z,0
2016-12-05T02:33:24.610Z,0
2016-12-05T02:34:24.664Z,0
2016-12-05T02:35:24.697Z,0
2016-12-05T02:36:24.769Z,0
2016-12-05T02:37:24.834Z,0
2016-12-05T02:38:24.873Z,0
2016-12-05T02:39:24.914Z,0
2016-12-05T02:40:24.992Z,0
2016-12-05T02:41:25.056Z,0
2016-12-05T02:42:25.082Z,0
2016-12-05T02:43:25.185Z,0
2016-12-05T02:44:25.199Z,0
2016-12-05T02:45:25.266Z,0
2016-12-05T02:46:25.319Z,0
2016-12-05T02:47:25.363Z,0
2016-12-05T02:48:25.421Z,0
2016-12-05T02:49:25.496Z,0
2016-12-05T02:50:25.531Z,0
2016-12-05T02:51:25.599Z,0
2016-12-05T02:52:25.663Z,0
2016-12-05T02:53:25.700Z,0
2016-12-05T02:54:25.771Z,0
2016-12-05T02:55:25.849Z,0
2016-12-05T02:56:25.871Z,0
2016-12-05T02:57:25.946Z,0
2016-12-05T02:58:26.015Z,0
2016-12-05T02:59:26.047Z,0
2016-12-05T03:00:26.111Z,0
2016-12-05T03:01:26.173Z,0
2016-12-05T03:02:26.201Z,0
2016-12-05T03:03:26.288Z,0
2016-12-05T03:04:26.626Z,0
2016-12-05T03:05:26.407Z,0
2016-12-05T03:06:26.446Z,0
2016-12-05T03:07:26.515Z,0
2016-12-05T03:08:26.558Z,0
2016-12-05T03:09:26.611Z,0
2016-12-05T03:10:26.714Z,0
2016-12-05T03:11:26.741Z,0
2016-12-05T03:12:26.762Z,0
2016-12-05T03:13:26.833Z,0
2016-12-05T03:14:26.888Z,0
2016-12-05T03:15:26.934Z,0
2016-12-05T03:16:27.007Z,0
2016-12-05T03:17:27.044Z,0
2016-12-05T03:18:27.105Z,0
2016-12-05T03:19:27.159Z,0
2016-12-05T03:20:27.243Z,0
2016-12-05T03:21:27.300Z,0
2016-12-05T03:22:27.319Z,0
2016-12-05T03:23:27.382Z,0
2016-12-05T03:24:27.458Z,0
2016-12-05T03:25:27.506Z,0
2016-12-05T03:26:27.575Z,0
2016-12-05T03:27:27.615Z,0
2016-12-05T03:28:27.677Z,0
2016-12-05T03:29:27.735Z,0
2016-12-05T03:30:27.797Z,0
2016-12-05T03:31:27.841Z,0
2016-12-05T03:32:27.895Z,0
2016-12-05T03:33:27.975Z,0
2016-12-05T03:34:28.019Z,0
2016-12-05T03:35:28.085Z,0
2016-12-05T03:36:28.127Z,0
2016-12-05T03:37:28.505Z,0
2016-12-05T03:38:28.227Z,0
2016-12-05T03:39:28.310Z,0
2016-12-05T03:40:28.356Z,0
2016-12-05T03:41:28.404Z,0
2016-12-05T03:42:28.477Z,0
2016-12-05T03:43:28.512Z,0
2016-12-05T03:44:28.583Z,0
2016-12-05T03:45:28.620Z,0
2016-12-05T03:46:28.693Z,0
2016-12-05T03:47:28.752Z,0
2016-12-05T03:48:28.800Z,0
2016-12-05T03:49:28.872Z,0
2016-12-05T03:50:28.892Z,0
2016-12-05T03:51:28.961Z,0
2016-12-05T03:52:29.019Z,0
2016-12-05T03:53:29.061Z,0
2016-12-05T03:54:29.131Z,0
2016-12-05T03:55:29.196Z,0
2016-12-05T03:56:29.247Z,0
2016-12-05T03:57:29.509Z,0
2016-12-05T03:58:29.369Z,0
2016-12-05T03:59:29.413Z,0
2016-12-05T04:00:29.470Z,0
2016-12-05T04:01:29.525Z,0
2016-12-05T04:02:29.567Z,0
2016-12-05T04:03:29.660Z,0
2016-12-05T04:04:29.694Z,0
2016-12-05T04:05:29.762Z,0
2016-12-05T04:06:29.822Z,0
2016-12-05T04:07:29.885Z,0
2016-12-05T04:08:29.922Z,0
2016-12-05T04:09:29.979Z,0
2016-12-05T04:10:30.053Z,0
2016-12-05T04:11:30.103Z,0
2016-12-05T04:12:30.139Z,0
2016-12-05T04:13:30.206Z,0
2016-12-05T04:14:30.259Z,0
2016-12-05T04:15:30.336Z,0
2016-12-05T04:16:30.357Z,0
2016-12-05T04:17:30.434Z,0
2016-12-05T04:18:30.489Z,0
2016-12-05T04:19:30.550Z,0
2016-12-05T04:20:30.594Z,0
2016-12-05T04:21:30.643Z,0
2016-12-05T04:22:30.715Z,0
2016-12-05T04:23:30.761Z,0
2016-12-05T04:24:30.814Z,0
2016-12-05T04:25:31.170Z,0
2016-12-05T04:26:30.925Z,0
2016-12-05T04:27:30.991Z,0
2016-12-05T04:28:31.063Z,0
2016-12-05T04:29:31.108Z,0
2016-12-05T04:30:31.165Z,0
2016-12-05T04:31:31.213Z,0
2016-12-05T04:32:31.259Z,0
2016-12-05T04:33:31.325Z,0
2016-12-05T04:34:31.389Z,0
2016-12-05T04:35:31.430Z,0
2016-12-05T04:36:31.491Z,0
2016-12-05T04:37:31.579Z,0
2016-12-05T04:38:31.604Z,0
2016-12-05T04:39:31.660Z,0
2016-12-05T04:40:31.704Z,0
2016-12-05T04:41:31.780Z,0
2016-12-05T04:42:31.834Z,0
2016-12-05T04:43:31.896Z,0
2016-12-05T04:44:31.945Z,0
2016-12-05T04:45:31.999Z,0
2016-12-05T04:46:32.055Z,0
2016-12-05T04:47:32.126Z,0
2016-12-05T04:48:32.154Z,0
2016-12-05T04:49:32.229Z,0
2016-12-05T04:50:32.280Z,0
2016-12-05T04:51:32.349Z,0
2016-12-05T04:52:32.385Z,0
2016-12-05T04:53:32.449Z,0
2016-12-05T04:54:32.489Z,0
2016-12-05T04:55:32.564Z,0
2016-12-05T04:56:32.659Z,0
2016-12-05T04:57:32.676Z,0
2016-12-05T04:58:32.730Z,0
2016-12-05T04:59:32.808Z,0
2016-12-05T05:00:32.861Z,0
2016-12-05T05:01:32.899Z,0
2016-12-05T05:02:32.979Z,0
2016-12-05T05:03:33.034Z,0
2016-12-05T05:04:33.052Z,0
2016-12-05T05:05:33.122Z,0
2016-12-05T05:06:33.199Z,0
2016-12-05T05:07:33.233Z,0
2016-12-05T05:08:33.290Z,0
2016-12-05T05:09:33.331Z,0
2016-12-05T05:10:33.389Z,0
2016-12-05T05:11:33.464Z,0
2016-12-05T05:12:33.515Z,0
2016-12-05T05:13:33.561Z,0
2016-12-05T05:14:33.628Z,0
2016-12-05T05:15:33.689Z,0
2016-12-05T05:16:33.756Z,0
2016-12-05T05:17:33.810Z,0
2016-12-05T05:18:33.861Z,0
2016-12-05T05:19:33.929Z,0
2016-12-05T05:20:33.961Z,0
2016-12-05T05:21:34.024Z,0
2016-12-05T05:22:34.077Z,0
2016-12-05T05:23:34.135Z,0
2016-12-05T05:24:34.191Z,0
2016-12-05T05:25:34.257Z,0
2016-12-05T05:26:34.304Z,0
2016-12-05T05:27:34.360Z,0
2016-12-05T05:28:34.402Z,0
2016-12-05T05:29:34.492Z,0
2016-12-05T05:30:34.520Z,0
2016-12-05T05:31:34.585Z,0
2016-12-05T05:32:34.640Z,0
2016-12-05T05:33:34.707Z,0
2016-12-05T05:34:34.773Z,0
2016-12-05T05:35:34.799Z,0
2016-12-05T05:36:34.854Z,0
2016-12-05T05:37:34.920Z,0
2016-12-05T05:38:34.985Z,0
2016-12-05T05:39:35.032Z,0
2016-12-05T05:40:35.108Z,0
2016-12-05T05:41:35.150Z,0
2016-12-05T05:42:35.197Z,0
2016-12-05T05:43:35.268Z,0
2016-12-05T05:44:35.316Z,0
2016-12-05T05:45:35.385Z,0
2016-12-05T05:46:35.435Z,0
2016-12-05T05:47:35.490Z,0
2016-12-05T05:48:35.545Z,0
2016-12-05T05:49:35.623Z,0
2016-12-05T05:50:35.660Z,0
2016-12-05T05:51:35.710Z,0
2016-12-05T05:52:35.773Z,0
2016-12-05T05:53:35.823Z,0
2016-12-05T05:54:35.884Z,0
2016-12-05T05:55:35.918Z,0
2016-12-05T05:56:36.007Z,0
2016-12-05T05:57:36.068Z,0
2016-12-05T05:58:36.089Z,0
2016-12-05T05:59:36.162Z,0
2016-12-05T06:00:36.225Z,0
2016-12-05T06:01:36.275Z,0
2016-12-05T06:02:36.327Z,0
2016-12-05T06:03:36.390Z,0
2016-12-05T06:04:36.447Z,0
2016-12-05T06:05:36.508Z,0
2016-12-05T06:06:36.572Z,0
2016-12-05T06:07:36.614Z,0
2016-12-05T06:08:36.676Z,0
2016-12-05T06:09:36.707Z,0
2016-12-05T06:10:36.790Z,0
2016-12-05T06:11:36.834Z,0
2016-12-05T06:12:36.899Z,0
2016-12-05T06:13:36.948Z,0
2016-12-05T06:14:36.995Z,0
2016-12-05T06:15:37.064Z,0
2016-12-05T06:16:37.116Z,0
2016-12-05T06:17:37.164Z,0
2016-12-05T06:18:37.224Z,0
2016-12-05T06:19:37.270Z,0
2016-12-05T06:20:37.325Z,0
2016-12-05T06:21:37.405Z,0
2016-12-05T06:22:37.453Z,0
2016-12-05T06:23:37.494Z,4
2016-12-05T06:24:37.572Z,4
2016-12-05T06:25:37.893Z,4
2016-12-05T06:26:37.695Z,0
2016-12-05T06:27:37.732Z,4
2016-12-05T06:28:37.782Z,4
2016-12-05T06:29:37.834Z,4
2016-12-05T06:30:37.890Z,4
2016-12-05T06:31:37.964Z,4
2016-12-05T06:32:38.012Z,8
2016-12-05T06:33:38.064Z,4
2016-12-05T06:34:38.117Z,8
2016-12-05T06:35:38.168Z,12
2016-12-05T06:36:38.243Z,12
2016-12-05T06:37:38.283Z,12
2016-12-05T06:38:38.347Z,12
2016-12-05T06:39:38.408Z,16
2016-12-05T06:40:38.463Z,16
2016-12-05T06:41:38.519Z,20
2016-12-05T06:42:38.586Z,20
2016-12-05T06:43:38.623Z,20
2016-12-05T06:44:38.700Z,24
2016-12-05T06:45:38.754Z,24
2016-12-05T06:46:38.803Z,28
2016-12-05T06:47:38.856Z,32
2016-12-05T06:48:38.914Z,32
2016-12-05T06:49:38.956Z,36
2016-12-05T06:50:39.027Z,40
2016-12-05T06:51:39.113Z,52
2016-12-05T06:52:39.121Z,68
2016-12-05T06:53:39.195Z,80
2016-12-05T06:54:39.262Z,88
2016-12-05T06:55:39.294Z,96
2016-12-05T06:56:39.347Z,108
2016-12-05T06:57:39.420Z,112
2016-12-05T06:58:39.467Z,116
2016-12-05T06:59:39.514Z,128
2016-12-05T07:00:39.580Z,140
2016-12-05T07:01:39.658Z,148
2016-12-05T07:02:39.702Z,152
2016-12-05T07:03:39.748Z,160
2016-12-05T07:04:39.808Z,164
2016-12-05T07:05:39.856Z,172
2016-12-05T07:06:39.916Z,184
2016-12-05T07:07:39.983Z,192
2016-12-05T07:08:40.037Z,208
2016-12-05T07:09:40.106Z,228
2016-12-05T07:10:40.140Z,240
2016-12-05T07:11:40.206Z,252
2016-12-05T07:12:40.258Z,260
2016-12-05T07:13:40.318Z,272
2016-12-05T07:14:40.372Z,280
2016-12-05T07:15:40.422Z,292
2016-12-05T07:16:40.474Z,300
2016-12-05T07:17:40.534Z,312
2016-12-05T07:18:40.595Z,320
2016-12-05T07:19:40.639Z,332
2016-12-05T07:20:40.705Z,340
2016-12-05T07:21:40.770Z,348
2016-12-05T07:22:40.813Z,356
2016-12-05T07:23:40.872Z,364
2016-12-05T07:24:40.909Z,376
2016-12-05T07:25:40.977Z,384
2016-12-05T07:26:41.031Z,396
2016-12-05T07:27:41.111Z,404
2016-12-05T07:28:41.146Z,412
2016-12-05T07:29:41.209Z,424
2016-12-05T07:30:41.253Z,432
2016-12-05T07:31:41.301Z,440
2016-12-05T07:32:41.590Z,452
2016-12-05T07:33:41.447Z,460
2016-12-05T07:34:41.471Z,472
2016-12-05T07:35:41.537Z,484
2016-12-05T07:36:41.612Z,488
2016-12-05T07:37:41.649Z,496
2016-12-05T07:38:41.708Z,508
2016-12-05T07:39:41.795Z,512
2016-12-05T07:40:41.821Z,520
2016-12-05T07:41:41.876Z,528
2016-12-05T07:42:41.914Z,536
2016-12-05T07:43:41.984Z,544
2016-12-05T07:44:42.024Z,548
2016-12-05T07:45:42.112Z,560
2016-12-05T07:46:42.136Z,564
2016-12-05T07:47:42.216Z,572
2016-12-05T07:48:42.271Z,580
2016-12-05T07:49:42.340Z,584
2016-12-05T07:50:42.381Z,588
2016-12-05T07:51:42.442Z,596
2016-12-05T07:52:42.501Z,600
2016-12-05T07:53:42.543Z,600
2016-12-05T07:54:42.582Z,604
2016-12-05T07:55:42.641Z,608
2016-12-05T07:56:42.728Z,612
2016-12-05T07:57:42.760Z,620
2016-12-05T07:58:42.831Z,632
2016-12-05T07:59:42.890Z,640
2016-12-05T08:00:42.940Z,648
2016-12-05T08:01:43.186Z,652
2016-12-05T08:02:43.247Z,656
2016-12-05T08:03:43.413Z,656
2016-12-05T08:04:43.174Z,660
2016-12-05T08:05:43.249Z,664
2016-12-05T08:06:43.278Z,676
2016-12-05T08:07:43.340Z,684
2016-12-05T08:08:43.381Z,688
2016-12-05T08:09:43.455Z,696
2016-12-05T08:10:43.493Z,704
2016-12-05T08:11:43.558Z,712
2016-12-05T08:12:43.596Z,720
2016-12-05T08:13:43.680Z,728
2016-12-05T08:14:43.703Z,740
2016-12-05T08:15:43.764Z,744
2016-12-05T08:16:43.829Z,756
2016-12-05T08:17:43.873Z,760
2016-12-05T08:18:43.962Z,768
2016-12-05T08:19:43.982Z,780
2016-12-05T08:20:44.076Z,784
2016-12-05T08:21:44.108Z,796
2016-12-05T08:22:44.152Z,804
2016-12-05T08:23:44.206Z,808
2016-12-05T08:24:44.284Z,812
2016-12-05T08:25:44.354Z,820
2016-12-05T08:26:44.411Z,824
2016-12-05T08:27:44.639Z,824
2016-12-05T08:28:44.513Z,828
2016-12-05T08:29:44.572Z,828
2016-12-05T08:30:44.617Z,832
2016-12-05T08:31:44.896Z,836
2016-12-05T08:32:44.927Z,844
2016-12-05T08:33:44.795Z,848
2016-12-05T08:34:44.822Z,852
2016-12-05T08:35:44.888Z,852
2016-12-05T08:36:44.948Z,856
2016-12-05T08:37:45.004Z,860
2016-12-05T08:38:45.076Z,864
2016-12-05T08:39:45.133Z,864
2016-12-05T08:40:45.175Z,868
2016-12-05T08:41:45.235Z,868
2016-12-05T08:42:45.292Z,872
2016-12-05T08:43:45.342Z,876
2016-12-05T08:44:45.406Z,880
2016-12-05T08:45:45.460Z,880
2016-12-05T08:46:45.530Z,884
2016-12-05T08:47:45.579Z,884
2016-12-05T08:48:45.607Z,888
2016-12-05T08:49:45.673Z,892
2016-12-05T08:50:45.727Z,892
2016-12-05T08:51:46.122Z,892
2016-12-05T08:52:45.850Z,900
2016-12-05T08:53:45.894Z,904
2016-12-05T08:54:45.959Z,908
2016-12-05T08:55:46.017Z,912
2016-12-05T08:56:46.083Z,916
2016-12-05T08:57:46.131Z,920
2016-12-05T08:58:46.342Z,928
2016-12-05T08:59:46.241Z,928
2016-12-05T09:00:46.321Z,940
2016-12-05T09:01:46.348Z,940
2016-12-05T09:02:46.629Z,940
2016-12-05T09:03:46.471Z,940
2016-12-05T09:04:46.523Z,940
2016-12-05T09:05:46.570Z,944
2016-12-05T09:06:46.663Z,948
2016-12-05T09:07:46.700Z,948
2016-12-05T09:08:46.770Z,948
2016-12-05T09:09:46.805Z,948
2016-12-05T09:10:46.875Z,948
2016-12-05T09:11:46.929Z,948
2016-12-05T09:12:46.979Z,948
2016-12-05T09:13:47.053Z,948
2016-12-05T09:14:47.105Z,952
2016-12-05T09:15:47.160Z,952
2016-12-05T09:16:47.204Z,952
2016-12-05T09:17:47.267Z,948
2016-12-05T09:18:47.328Z,952
2016-12-05T09:19:47.370Z,952
2016-12-05T09:20:47.458Z,960
2016-12-05T09:21:47.496Z,960
2016-12-05T09:22:47.546Z,968
2016-12-05T09:23:47.624Z,968
2016-12-05T09:24:47.667Z,976
2016-12-05T09:25:47.742Z,980
2016-12-05T09:26:47.766Z,984
2016-12-05T09:27:47.839Z,992
2016-12-05T09:28:47.902Z,992
2016-12-05T09:29:47.973Z,1004
2016-12-05T09:30:48.001Z,1008
2016-12-05T09:31:48.274Z,1008
2016-12-05T09:32:48.322Z,1012
2016-12-05T09:33:48.192Z,1020
2016-12-05T09:34:48.251Z,1024
2016-12-05T09:35:48.299Z,1028
2016-12-05T09:36:48.370Z,1036
2016-12-05T09:37:48.402Z,1044
2016-12-05T09:38:48.463Z,1048
2016-12-05T09:39:48.521Z,1052
2016-12-05T09:40:48.598Z,1060
2016-12-05T09:41:48.628Z,1072
2016-12-05T09:42:48.712Z,1076
2016-12-05T09:43:48.773Z,1084
2016-12-05T09:44:48.814Z,1100
2016-12-05T09:45:48.866Z,1112
2016-12-05T09:46:48.944Z,1120
2016-12-05T09:47:48.987Z,1124
2016-12-05T09:48:49.334Z,1128
2016-12-05T09:49:49.116Z,1136
2016-12-05T09:50:49.160Z,1140
2016-12-05T09:51:49.216Z,1144
2016-12-05T09:52:49.271Z,1152
2016-12-05T09:53:49.330Z,1152
2016-12-05T09:54:49.391Z,1160
2016-12-05T09:55:49.460Z,1168
2016-12-05T09:56:49.496Z,1176
2016-12-05T09:57:49.562Z,1184
2016-12-05T09:58:49.621Z,1188
2016-12-05T09:59:49.677Z,1200
2016-12-05T10:00:49.716Z,1204
2016-12-05T10:01:49.970Z,1204
2016-12-05T10:02:49.846Z,1208
2016-12-05T10:03:50.102Z,1220
2016-12-05T10:04:50.038Z,1220
2016-12-05T10:05:50.004Z,1228
2016-12-05T10:06:50.074Z,1236
2016-12-05T10:07:50.123Z,1240
2016-12-05T10:08:50.191Z,1248
2016-12-05T10:09:50.224Z,1252
2016-12-05T10:10:50.289Z,1252
2016-12-05T10:11:50.345Z,1260
2016-12-05T10:12:50.414Z,1256
2016-12-05T10:13:50.469Z,1268
2016-12-05T10:14:50.511Z,1276
2016-12-05T10:15:50.596Z,1276
2016-12-05T10:16:50.622Z,1284
2016-12-05T10:17:50.681Z,1288
2016-12-05T10:18:50.751Z,1288
2016-12-05T10:19:50.810Z,1292
2016-12-05T10:20:50.868Z,1296
2016-12-05T10:21:50.933Z,1300
2016-12-05T10:22:50.972Z,1300
2016-12-05T10:23:51.037Z,1304
2016-12-05T10:24:51.107Z,1308
2016-12-05T10:25:51.144Z,1312
2016-12-05T10:26:51.515Z,1316
2016-12-05T10:27:51.277Z,1316
2016-12-05T10:28:51.322Z,1316
2016-12-05T10:29:51.367Z,1324
2016-12-05T10:30:51.447Z,1324
2016-12-05T10:31:51.481Z,1324
2016-12-05T10:32:51.787Z,1328
2016-12-05T10:33:51.614Z,1328
2016-12-05T10:34:51.664Z,1332
2016-12-05T10:35:51.730Z,1336
2016-12-05T10:36:51.780Z,1336
2016-12-05T10:37:51.837Z,1340
2016-12-05T10:38:51.904Z,1344
2016-12-05T10:39:51.953Z,1344
2016-12-05T10:40:51.999Z,1348
2016-12-05T10:41:52.063Z,1344
2016-12-05T10:42:52.119Z,1348
2016-12-05T10:43:52.184Z,1352
2016-12-05T10:44:52.231Z,1352
2016-12-05T10:45:52.285Z,1352
2016-12-05T10:46:52.355Z,1352
2016-12-05T10:47:52.400Z,1352
2016-12-05T10:48:52.456Z,1352
2016-12-05T10:49:52.540Z,1348
2016-12-05T10:50:52.587Z,1352
2016-12-05T10:51:52.642Z,1348
2016-12-05T10:52:52.703Z,1348
2016-12-05T10:53:52.768Z,1348
2016-12-05T10:54:52.823Z,1348
2016-12-05T10:55:52.880Z,1348
2016-12-05T10:56:52.947Z,1352
2016-12-05T10:57:52.991Z,1352
2016-12-05T10:58:53.049Z,1352
2016-12-05T10:59:53.091Z,1360
2016-12-05T11:00:53.164Z,1360
2016-12-05T11:01:53.243Z,1360
2016-12-05T11:02:53.281Z,1356
2016-12-05T11:03:53.327Z,1356
2016-12-05T11:04:53.416Z,1360
2016-12-05T11:05:53.457Z,1364
2016-12-05T11:06:53.497Z,1372
2016-12-05T11:07:53.562Z,1376
2016-12-05T11:08:53.621Z,1380
2016-12-05T11:09:53.689Z,1388
2016-12-05T11:10:53.721Z,1392
2016-12-05T11:11:53.769Z,1400
2016-12-05T11:12:54.172Z,1408
2016-12-05T11:13:53.886Z,1412
2016-12-05T11:14:53.974Z,1424
2016-12-05T11:15:53.997Z,1432
2016-12-05T11:16:54.385Z,1432
2016-12-05T11:17:54.454Z,1436
2016-12-05T11:18:54.225Z,1428
2016-12-05T11:19:54.242Z,1448
2016-12-05T11:20:54.303Z,1452
2016-12-05T11:21:54.356Z,1460
2016-12-05T11:22:54.433Z,1472
2016-12-05T11:23:54.458Z,1472
2016-12-05T11:24:54.513Z,1480
2016-12-05T11:25:54.585Z,1484
2016-12-05T11:26:54.662Z,1492
2016-12-05T11:27:54.688Z,1504
2016-12-05T11:28:54.764Z,1508
2016-12-05T11:29:54.835Z,1520
2016-12-05T11:30:54.867Z,1524
2016-12-05T11:31:54.936Z,1528
2016-12-05T11:32:54.983Z,1536
2016-12-05T11:33:55.046Z,1540
2016-12-05T11:34:55.124Z,1544
2016-12-05T11:35:55.158Z,1548
2016-12-05T11:36:55.238Z,1556
2016-12-05T11:37:55.290Z,1564
2016-12-05T11:38:55.380Z,1572
2016-12-05T11:39:55.395Z,1576
2016-12-05T11:40:55.460Z,1584
2016-12-05T11:41:55.525Z,1592
2016-12-05T11:42:55.584Z,1596
2016-12-05T11:43:55.630Z,1604
2016-12-05T11:44:55.697Z,1612
2016-12-05T11:45:55.751Z,1624
2016-12-05T11:46:55.777Z,1628
2016-12-05T11:47:55.844Z,1632
2016-12-05T11:48:55.933Z,1644
2016-12-05T11:49:55.975Z,1652
2016-12-05T11:50:56.013Z,1656
2016-12-05T11:51:56.098Z,1668
2016-12-05T11:52:56.125Z,1672
2016-12-05T11:53:56.178Z,1684
2016-12-05T11:54:56.253Z,1688
2016-12-05T11:55:56.304Z,1696
2016-12-05T11:56:56.384Z,1704
2016-12-05T11:57:56.436Z,1708
2016-12-05T11:58:56.487Z,1716
2016-12-05T11:59:56.535Z,1724
2016-12-05T12:00:56.606Z,1732
2016-12-05T12:01:56.642Z,1736
2016-12-05T12:02:56.710Z,1744
2016-12-05T12:03:56.787Z,1748
2016-12-05T12:04:56.821Z,1756
2016-12-05T12:05:56.897Z,1764
2016-12-05T12:06:56.952Z,1768
2016-12-05T12:07:57.003Z,1772
2016-12-05T12:08:57.064Z,1776
2016-12-05T12:09:57.097Z,1776
2016-12-05T12:10:57.154Z,1784
2016-12-05T12:11:57.244Z,1788
2016-12-05T12:12:57.285Z,1788
2016-12-05T12:13:57.345Z,1792
2016-12-05T12:14:57.404Z,1796
2016-12-05T12:15:57.467Z,1796
2016-12-05T12:16:57.499Z,1800
2016-12-05T12:17:57.590Z,1804
2016-12-05T12:18:57.629Z,1808
2016-12-05T12:19:57.670Z,1804
2016-12-05T12:20:57.757Z,1812
2016-12-05T12:21:57.806Z,1812
2016-12-05T12:22:57.869Z,1816
2016-12-05T12:23:57.910Z,1820
2016-12-05T12:24:57.956Z,1824
2016-12-05T12:25:58.051Z,1828
2016-12-05T12:26:58.073Z,1828
2016-12-05T12:27:58.132Z,1836
2016-12-05T12:28:58.200Z,1836
2016-12-05T12:29:58.258Z,1836
2016-12-05T12:30:58.330Z,1840
2016-12-05T12:31:58.379Z,1840
2016-12-05T12:32:58.440Z,1836
2016-12-05T12:33:58.510Z,1840
2016-12-05T12:34:58.534Z,1836
2016-12-05T12:35:58.597Z,1836
2016-12-05T12:36:58.686Z,1828
2016-12-05T12:37:58.706Z,1820
2016-12-05T12:38:59.079Z,1812
2016-12-05T12:39:58.829Z,1800
2016-12-05T12:40:58.879Z,1792
2016-12-05T12:41:58.977Z,1780
2016-12-05T12:42:59.059Z,1768
2016-12-05T12:43:59.074Z,1756
2016-12-05T12:44:59.139Z,1744
2016-12-05T12:45:59.183Z,1736
2016-12-05T12:46:59.236Z,1724
2016-12-05T12:47:59.318Z,1708
2016-12-05T12:48:59.352Z,1700
2016-12-05T12:49:59.734Z,1688
2016-12-05T12:50:59.781Z,1676
2016-12-05T12:51:59.538Z,1664
2016-12-05T12:52:59.586Z,1652
2016-12-05T12:53:59.645Z,1636
2016-12-05T12:54:59.705Z,1624
2016-12-05T12:55:59.756Z,1612
2016-12-05T12:56:59.814Z,1600
2016-12-05T12:57:59.894Z,1592
2016-12-05T12:58:59.942Z,1584
2016-12-05T12:59:59.999Z,1576
2016-12-05T13:01:00.053Z,1572
2016-12-05T13:02:00.111Z,1556
2016-12-05T13:03:00.167Z,1548
2016-12-05T13:04:00.212Z,1536
2016-12-05T13:05:00.290Z,1524
2016-12-05T13:06:00.343Z,1516
2016-12-05T13:07:00.404Z,1504
2016-12-05T13:08:00.448Z,1492
2016-12-05T13:09:00.510Z,1480
2016-12-05T13:10:00.569Z,1468
2016-12-05T13:11:00.936Z,1456
2016-12-05T13:12:00.691Z,1456
2016-12-05T13:13:00.751Z,1440
2016-12-05T13:14:00.957Z,1428
2016-12-05T13:15:00.867Z,1424
2016-12-05T13:16:00.923Z,1412
2016-12-05T13:17:00.957Z,1400
2016-12-05T13:18:01.031Z,1388
2016-12-05T13:19:01.101Z,1376
2016-12-05T13:20:01.170Z,1372
2016-12-05T13:21:01.192Z,1360
2016-12-05T13:22:01.261Z,1348
2016-12-05T13:23:01.325Z,1340
2016-12-05T13:24:01.383Z,1328
2016-12-05T13:25:01.449Z,1316
2016-12-05T13:26:01.492Z,1312
2016-12-05T13:27:01.549Z,1300
2016-12-05T13:28:01.605Z,1288
2016-12-05T13:29:01.666Z,1284
2016-12-05T13:30:01.713Z,1272
2016-12-05T13:31:01.784Z,1264
2016-12-05T13:32:01.821Z,1256
2016-12-05T13:33:01.889Z,1248
2016-12-05T13:34:01.944Z,1240
2016-12-05T13:35:02.015Z,1236
2016-12-05T13:36:02.071Z,1232
2016-12-05T13:37:02.146Z,1224
2016-12-05T13:38:02.203Z,1216
2016-12-05T13:39:02.278Z,1212
2016-12-05T13:40:02.310Z,1208
2016-12-05T13:41:02.366Z,1204
2016-12-05T13:42:02.396Z,1192
2016-12-05T13:43:02.495Z,1192
2016-12-05T13:44:02.532Z,1188
2016-12-05T13:45:02.591Z,1184
2016-12-05T13:46:02.634Z,1176
2016-12-05T13:47:02.705Z,1172
2016-12-05T13:48:02.765Z,1168
2016-12-05T13:49:02.811Z,1160
2016-12-05T13:50:02.873Z,1156
2016-12-05T13:51:02.931Z,1148
2016-12-05T13:52:02.969Z,1140
2016-12-05T13:53:03.036Z,1132
2016-12-05T13:54:03.095Z,1124
2016-12-05T13:55:03.174Z,1108
2016-12-05T13:56:03.226Z,1068
2016-12-05T13:57:03.272Z,920
2016-12-05T13:58:03.336Z,692
2016-12-05T13:59:03.411Z,432
2016-12-05T14:00:03.442Z,284
2016-12-05T14:01:03.508Z,272
2016-12-05T14:02:03.571Z,272
2016-12-05T14:03:03.600Z,268
2016-12-05T14:04:03.697Z,268
2016-12-05T14:05:03.735Z,264